F/V Harvestor — WDC8229 — position and weather

sailwx.info

Track history (hours):
 
Tides and Currents Weather Stations Pressure Air Temp Water Temp Dewpoint Dewpoint Depression Visibility Wind Speed Wind Dir Waves Ship Positions

F/V Harvestor

More information available from US FCC via Universal Licensing System and Coast Guard Vessel Documentation Center.

Last reported at 2014-Jul-22 19:33 UTC. Time now 2014-Jul-22 19:36 UTC.
Position N 47°38' W 122°23'.

Length 40 m.

Type: Fishing. MMSI: 367083650.

Date/timePositionNaut miles runAvg speedWind from/ knotsBaromVisibWave heightAir tempDewpointWater temp
2014-Jul-22 19:33N 47°38' W 122°23'0 0.0
2014-Jul-22 19:30N 47°38' W 122°23'0 0.0
2014-Jul-22 18:33N 47°38' W 122°23'0 0.0
2014-Jul-22 18:30N 47°38' W 122°23'0 0.0
2014-Jul-22 17:33N 47°38' W 122°23'0 0.0
2014-Jul-22 17:29N 47°38' W 122°23'0 0.0
2014-Jul-22 16:33N 47°38' W 122°23'0 0.1
2014-Jul-22 16:29N 47°38' W 122°23'0 0.0
2014-Jul-22 15:33N 47°38' W 122°23'0 0.0
2014-Jul-22 15:24N 47°38' W 122°23'0 0.0
2014-Jul-22 14:34N 47°38' W 122°23'0 0.0
2014-Jul-22 14:33N 47°38' W 122°23'0 0.0
2014-Jul-22 13:33N 47°38' W 122°23'0 0.0
2014-Jul-22 13:33N 47°38' W 122°23'0 0.0
2014-Jul-22 12:33N 47°38' W 122°23'0 0.0
2014-Jul-22 12:33N 47°38' W 122°23'0 0.0
2014-Jul-22 11:33N 47°38' W 122°23'0 0.0
2014-Jul-22 11:33N 47°38' W 122°23'0 0.0
2014-Jul-22 10:33N 47°38' W 122°23'0 0.3
2014-Jul-22 10:32N 47°38' W 122°23'0 0.0
2014-Jul-22 09:33N 47°38' W 122°23'0 0.0
2014-Jul-22 09:32N 47°38' W 122°23'0 0.0
2014-Jul-22 08:33N 47°38' W 122°23'0 0.0
2014-Jul-22 08:32N 47°38' W 122°23'0 0.0
2014-Jul-22 07:33N 47°38' W 122°23'0 0.0
2014-Jul-22 07:32N 47°38' W 122°23'0 0.0
2014-Jul-22 06:33N 47°38' W 122°23'0 0.0
2014-Jul-22 05:33N 47°38' W 122°23'0 0.1
2014-Jul-22 05:29N 47°38' W 122°23'0 0.0
2014-Jul-22 04:34N 47°38' W 122°23'0 0.0
2014-Jul-22 04:33N 47°38' W 122°23'0 0.0
2014-Jul-22 03:34N 47°38' W 122°23'0 0.7
2014-Jul-22 03:33N 47°38' W 122°23'0 0.0
2014-Jul-22 02:32N 47°38' W 122°23'0 0.0
2014-Jul-22 02:18N 47°38' W 122°23'0 0.0
2014-Jul-22 01:29N 47°38' W 122°23'0 0.0
2014-Jul-22 01:27N 47°38' W 122°23'0 0.0
2014-Jul-22 00:33N 47°38' W 122°23'0 0.0
2014-Jul-22 00:32N 47°38' W 122°23'3 3.2
2014-Jul-21 23:33N 47°36' W 122°26'0 8.2
2014-Jul-21 23:32N 47°36' W 122°27'3 3.6
2014-Jul-21 22:33N 47°35' W 122°32'0 0.0
2014-Jul-21 21:43N 47°35' W 122°32'0 0.0
2014-Jul-21 21:33N 47°35' W 122°32'0 0.0
2014-Jul-21 20:33N 47°35' W 122°32'0 0.0
2014-Jul-21 20:18N 47°35' W 122°32'0 0.0
2014-Jul-21 19:33N 47°35' W 122°32'0 0.0
2014-Jul-21 18:33N 47°35' W 122°32'0 1.6
2014-Jul-21 18:30N 47°35' W 122°32'0 0.1
2014-Jul-21 17:33N 47°35' W 122°32'0 0.0
2014-Jul-21 17:21N 47°35' W 122°32'0 0.0
2014-Jul-21 16:33N 47°35' W 122°32'0 0.0
2014-Jul-21 16:31N 47°35' W 122°32'0 0.3
2014-Jul-21 15:33N 47°34' W 122°31'1 6.2
2014-Jul-21 15:25N 47°34' W 122°30'6 7.0
2014-Jul-21 14:33N 47°38' W 122°23'0 0.9
2014-Jul-21 14:30N 47°38' W 122°23'0 0.0
2014-Jul-21 13:33N 47°38' W 122°23'0 0.0
2014-Jul-21 13:30N 47°38' W 122°23'0 0.0
2014-Jul-21 12:33N 47°38' W 122°23'0 0.0
2014-Jul-21 12:30N 47°38' W 122°23'0 0.0
2014-Jul-21 11:33N 47°38' W 122°23'0 0.0
2014-Jul-21 11:32N 47°38' W 122°23'0 0.0
2014-Jul-21 10:33N 47°38' W 122°23'0 0.0
2014-Jul-21 10:33N 47°38' W 122°23'0 0.0
2014-Jul-21 09:33N 47°38' W 122°23'0 0.0
2014-Jul-21 08:33N 47°38' W 122°23'0 0.0
2014-Jul-21 08:33N 47°38' W 122°23'0 0.0
2014-Jul-21 07:33N 47°38' W 122°23'0 0.0
2014-Jul-21 07:31N 47°38' W 122°23'0 0.0
2014-Jul-21 06:33N 47°38' W 122°23'0 0.0
2014-Jul-21 06:33N 47°38' W 122°23'0 0.0
2014-Jul-21 05:43N 47°38' W 122°23'0 0.0
2014-Jul-21 05:33N 47°38' W 122°23'0 0.0
2014-Jul-21 04:33N 47°38' W 122°23'0 0.0
2014-Jul-21 04:32N 47°38' W 122°23'0 0.0
2014-Jul-21 03:33N 47°38' W 122°23'0 0.0
2014-Jul-21 03:32N 47°38' W 122°23'0 0.0
2014-Jul-21 02:33N 47°38' W 122°23'0 0.0
2014-Jul-21 02:32N 47°38' W 122°23'0 0.0
2014-Jul-21 01:33N 47°38' W 122°23'0 0.0
2014-Jul-21 01:31N 47°38' W 122°23'0 0.0
2014-Jul-21 00:33N 47°38' W 122°23'0 0.0
2014-Jul-21 00:31N 47°38' W 122°23'0 0.0
2014-Jul-20 23:33N 47°38' W 122°23'0 0.0
2014-Jul-20 23:31N 47°38' W 122°23'0 0.0
2014-Jul-20 22:33N 47°38' W 122°23'0 0.0
2014-Jul-20 22:31N 47°38' W 122°23'0 0.0
2014-Jul-20 21:33N 47°38' W 122°23'0 0.0
2014-Jul-20 21:30N 47°38' W 122°23'0 0.0
2014-Jul-20 20:33N 47°38' W 122°23'0 0.0
2014-Jul-20 20:19N 47°38' W 122°23'0 0.0
2014-Jul-20 19:33N 47°38' W 122°23'0 0.0
2014-Jul-20 19:29N 47°38' W 122°23'0 0.0
2014-Jul-20 18:33N 47°38' W 122°23'0 0.0
2014-Jul-20 18:29N 47°38' W 122°23'0 0.0
2014-Jul-20 17:33N 47°38' W 122°23'0 0.0
2014-Jul-20 17:29N 47°38' W 122°23'0 0.0
2014-Jul-20 16:33N 47°38' W 122°23'0 0.0
2014-Jul-20 16:22N 47°38' W 122°23'0 0.0
2014-Jul-20 15:33N 47°38' W 122°23'0 0.0
2014-Jul-20 15:32N 47°38' W 122°23'0 0.0
2014-Jul-20 14:33N 47°38' W 122°23'0 0.0
2014-Jul-20 14:32N 47°38' W 122°23'0 0.0
2014-Jul-20 13:33N 47°38' W 122°23'0 0.0
2014-Jul-20 13:06N 47°38' W 122°23'0 0.0
2014-Jul-20 12:33N 47°38' W 122°23'0 0.0
2014-Jul-20 12:31N 47°38' W 122°23'0 0.0
2014-Jul-20 11:33N 47°38' W 122°23'0 0.0
2014-Jul-20 11:31N 47°38' W 122°23'0 0.0
2014-Jul-20 10:33N 47°38' W 122°23'0 0.0
2014-Jul-20 10:30N 47°38' W 122°23'0 0.0
2014-Jul-20 09:33N 47°38' W 122°23'0 0.0
2014-Jul-20 09:23N 47°38' W 122°23'0 0.0
2014-Jul-20 08:33N 47°38' W 122°23'0 0.0
2014-Jul-20 08:33N 47°38' W 122°23'0 0.0
2014-Jul-20 07:33N 47°38' W 122°23'0 0.0
2014-Jul-20 07:33N 47°38' W 122°23'0 0.0
2014-Jul-20 06:33N 47°38' W 122°23'0 0.0
2014-Jul-20 06:33N 47°38' W 122°23'0 0.0
2014-Jul-20 05:53N 47°38' W 122°23'0 0.0
2014-Jul-20 05:33N 47°38' W 122°23'0 0.0
2014-Jul-20 04:33N 47°38' W 122°23'0 0.0
2014-Jul-20 04:32N 47°38' W 122°23'0 0.0
2014-Jul-20 03:33N 47°38' W 122°23'0 0.0
2014-Jul-20 03:33N 47°38' W 122°23'0 0.0
2014-Jul-20 02:33N 47°38' W 122°23'0 0.0
2014-Jul-20 02:32N 47°38' W 122°23'0 0.0
2014-Jul-20 01:33N 47°38' W 122°23'0 0.0
2014-Jul-20 01:32N 47°38' W 122°23'0 0.0
2014-Jul-20 00:33N 47°38' W 122°23'0 0.0
2014-Jul-20 00:32N 47°38' W 122°23'0 0.0
2014-Jul-19 23:33N 47°38' W 122°23'0 0.0
2014-Jul-19 23:32N 47°38' W 122°23'0 0.0
2014-Jul-19 22:33N 47°38' W 122°23'0 0.0
2014-Jul-19 22:32N 47°38' W 122°23'0 0.0
2014-Jul-19 21:33N 47°38' W 122°23'0 0.0
2014-Jul-19 21:32N 47°38' W 122°23'0 0.0
2014-Jul-19 20:33N 47°38' W 122°23'0 0.0
2014-Jul-19 20:32N 47°38' W 122°23'0 0.0
2014-Jul-19 19:33N 47°38' W 122°23'0 0.0
2014-Jul-19 19:31N 47°38' W 122°23'0 0.0
2014-Jul-19 18:33N 47°38' W 122°23'0 0.0
2014-Jul-19 18:31N 47°38' W 122°23'0 0.0
2014-Jul-19 17:33N 47°38' W 122°23'0 0.0
2014-Jul-19 17:31N 47°38' W 122°23'0 0.0
2014-Jul-19 16:33N 47°38' W 122°23'0 0.0
2014-Jul-19 16:31N 47°38' W 122°23'0 0.0
2014-Jul-19 15:33N 47°38' W 122°23'0 0.2
2014-Jul-19 15:31N 47°38' W 122°23'0 0.0
2014-Jul-19 14:33N 47°38' W 122°23'0 0.0
2014-Jul-19 14:31N 47°38' W 122°23'0 0.0
2014-Jul-19 13:33N 47°38' W 122°23'0 0.0
2014-Jul-19 13:31N 47°38' W 122°23'0 0.0
2014-Jul-19 12:33N 47°38' W 122°23'0 0.0
2014-Jul-19 12:31N 47°38' W 122°23'0 0.0
2014-Jul-19 11:33N 47°38' W 122°23'0 0.0
2014-Jul-19 11:31N 47°38' W 122°23'0 0.0
2014-Jul-19 10:33N 47°38' W 122°23'0 0.0
2014-Jul-19 10:31N 47°38' W 122°23'0 0.0
2014-Jul-19 09:33N 47°38' W 122°23'0 0.0
2014-Jul-19 09:31N 47°38' W 122°23'0 0.0
2014-Jul-19 08:33N 47°38' W 122°23'0 0.0
2014-Jul-19 08:31N 47°38' W 122°23'0 0.0
2014-Jul-19 07:33N 47°38' W 122°23'0 0.0
2014-Jul-19 07:31N 47°38' W 122°23'0 0.0
2014-Jul-19 06:33N 47°38' W 122°23'0 0.0
2014-Jul-19 06:30N 47°38' W 122°23'0 0.0
2014-Jul-19 05:50N 47°38' W 122°23'0 0.0
2014-Jul-19 05:33N 47°38' W 122°23'0 0.0
2014-Jul-19 04:33N 47°38' W 122°23'0 0.0
2014-Jul-19 04:30N 47°38' W 122°23'0 0.0
2014-Jul-19 03:33N 47°38' W 122°23'0 0.0
2014-Jul-19 03:30N 47°38' W 122°23'0 0.0
2014-Jul-19 02:33N 47°38' W 122°23'0 0.0
2014-Jul-19 02:30N 47°38' W 122°23'0 0.0
2014-Jul-19 01:33N 47°38' W 122°23'0 0.0
2014-Jul-19 01:30N 47°38' W 122°23'0 0.0
2014-Jul-19 00:33N 47°38' W 122°23'0 0.0
2014-Jul-19 00:30N 47°38' W 122°23'0 0.0
2014-Jul-18 23:33N 47°38' W 122°23'0 0.0
2014-Jul-18 23:30N 47°38' W 122°23'0 0.0
2014-Jul-18 22:33N 47°38' W 122°23'0 0.0
2014-Jul-18 22:20N 47°38' W 122°23'0 0.0
2014-Jul-18 21:33N 47°38' W 122°23'0 0.0
2014-Jul-18 21:29N 47°38' W 122°23'0 0.0
2014-Jul-18 20:33N 47°38' W 122°23'0 0.0
2014-Jul-18 20:17N 47°38' W 122°23'0 0.0
2014-Jul-18 19:33N 47°38' W 122°23'0 0.0
2014-Jul-18 19:32N 47°38' W 122°23'0 0.0
2014-Jul-18 18:33N 47°38' W 122°23'0 0.0
2014-Jul-18 18:33N 47°38' W 122°23'0 0.0
2014-Jul-18 17:33N 47°38' W 122°23'0 0.0
2014-Jul-18 17:33N 47°38' W 122°23'0 0.0
2014-Jul-18 16:33N 47°38' W 122°23'0 0.0
2014-Jul-18 16:33N 47°38' W 122°23'0 0.0
2014-Jul-18 15:33N 47°38' W 122°23'0 0.0
2014-Jul-18 15:32N 47°38' W 122°23'0 0.0
2014-Jul-18 14:33N 47°38' W 122°23'0 0.3
2014-Jul-18 14:32N 47°38' W 122°23'0 0.0
2014-Jul-18 13:32N 47°38' W 122°23'0 0.0
2014-Jul-18 13:31N 47°38' W 122°23'0 0.0
2014-Jul-18 12:33N 47°38' W 122°23'0 0.0
2014-Jul-18 12:31N 47°38' W 122°23'0 0.0
2014-Jul-18 11:33N 47°38' W 122°23'0 0.0
2014-Jul-18 10:31N 47°38' W 122°23'0 0.0
2014-Jul-18 10:29N 47°38' W 122°23'0 0.0
2014-Jul-18 09:33N 47°38' W 122°23'0 0.0
2014-Jul-18 09:29N 47°38' W 122°23'0 0.0
2014-Jul-18 08:33N 47°38' W 122°23'0 0.0
2014-Jul-18 08:29N 47°38' W 122°23'0 0.0
2014-Jul-18 07:33N 47°38' W 122°23'0 0.0
2014-Jul-18 07:27N 47°38' W 122°23'0 0.0
2014-Jul-18 06:33N 47°38' W 122°23'0 0.0
2014-Jul-18 06:32N 47°38' W 122°23'0 0.0
2014-Jul-18 05:47N 47°38' W 122°23'0 0.0
2014-Jul-18 05:33N 47°38' W 122°23'0 0.0
2014-Jul-18 04:33N 47°38' W 122°23'0 0.0
2014-Jul-18 04:21N 47°38' W 122°23'0 0.0
2014-Jul-18 03:33N 47°38' W 122°23'0 0.2
2014-Jul-18 03:32N 47°38' W 122°23'0 0.0
2014-Jul-18 02:34N 47°38' W 122°23'0 0.0
2014-Jul-18 02:31N 47°38' W 122°23'0 0.0
2014-Jul-18 01:33N 47°38' W 122°23'0 0.2
2014-Jul-18 01:31N 47°38' W 122°23'0 0.0
2014-Jul-18 00:33N 47°38' W 122°23'0 0.0
2014-Jul-18 00:31N 47°38' W 122°23'0 0.0
2014-Jul-17 23:33N 47°38' W 122°23'0 0.0
2014-Jul-17 23:31N 47°38' W 122°23'0 0.0
2014-Jul-17 22:33N 47°38' W 122°23'0 0.2
2014-Jul-17 22:31N 47°38' W 122°23'0 0.0
2014-Jul-17 21:33N 47°38' W 122°23'0 0.0
2014-Jul-17 21:30N 47°38' W 122°23'0 0.0
2014-Jul-17 20:33N 47°38' W 122°23'0 0.0
2014-Jul-17 20:31N 47°38' W 122°23'0 0.0
2014-Jul-17 19:33N 47°38' W 122°23'0 0.0
2014-Jul-17 19:30N 47°38' W 122°23'0 0.0
2014-Jul-17 18:33N 47°38' W 122°23'0 0.0
2014-Jul-17 18:24N 47°38' W 122°23'0 0.0
2014-Jul-17 17:33N 47°38' W 122°23'0 0.0
2014-Jul-17 17:30N 47°38' W 122°23'0 0.0
2014-Jul-17 16:33N 47°38' W 122°23'0 0.0
2014-Jul-17 16:30N 47°38' W 122°23'0 0.0
2014-Jul-17 15:33N 47°38' W 122°23'0 0.0
2014-Jul-17 15:29N 47°38' W 122°23'0 0.0
2014-Jul-17 14:33N 47°38' W 122°23'0 0.0
2014-Jul-17 14:29N 47°38' W 122°23'0 0.0
2014-Jul-17 13:33N 47°38' W 122°23'0 0.0
2014-Jul-17 13:29N 47°38' W 122°23'0 0.0
2014-Jul-17 12:33N 47°38' W 122°23'0 0.0
2014-Jul-17 12:29N 47°38' W 122°23'0 0.0
2014-Jul-17 11:33N 47°38' W 122°23'0 0.0
2014-Jul-17 11:29N 47°38' W 122°23'0 0.0
2014-Jul-17 10:33N 47°38' W 122°23'0 0.0
2014-Jul-17 10:29N 47°38' W 122°23'0 0.0
2014-Jul-17 09:33N 47°38' W 122°23'0 0.0
2014-Jul-17 09:29N 47°38' W 122°23'0 0.0
2014-Jul-17 08:33N 47°38' W 122°23'0 0.0
2014-Jul-17 08:29N 47°38' W 122°23'0 0.0
2014-Jul-17 07:33N 47°38' W 122°23'0 0.0
2014-Jul-17 07:24N 47°38' W 122°23'0 0.0
2014-Jul-17 06:33N 47°38' W 122°23'0 0.0
2014-Jul-17 06:29N 47°38' W 122°23'0 0.0
2014-Jul-17 05:54N 47°38' W 122°23'0 0.0
2014-Jul-17 05:33N 47°38' W 122°23'0 0.0
2014-Jul-17 04:34N 47°38' W 122°23'0 0.0
2014-Jul-17 04:33N 47°38' W 122°23'0 0.0
2014-Jul-17 03:34N 47°38' W 122°23'0 0.0
2014-Jul-17 03:33N 47°38' W 122°23'0 0.0
2014-Jul-17 02:33N 47°38' W 122°23'0 0.0
2014-Jul-17 02:33N 47°38' W 122°23'0 0.0
2014-Jul-17 01:33N 47°38' W 122°23'0 0.0
2014-Jul-17 01:33N 47°38' W 122°23'0 0.0
2014-Jul-17 00:33N 47°38' W 122°23'0 0.0
2014-Jul-17 00:33N 47°38' W 122°23'6 6.5
2014-Jul-16 23:34N 47°34' W 122°31'1 1.4
2014-Jul-16 23:02N 47°35' W 122°32'0 0.0
2014-Jul-16 22:33N 47°35' W 122°32'0 0.0
2014-Jul-16 21:33N 47°35' W 122°32'0 0.0
2014-Jul-16 21:13N 47°35' W 122°32'0 0.0
2014-Jul-16 20:33N 47°35' W 122°32'0 0.0
2014-Jul-16 20:17N 47°35' W 122°32'0 0.0
2014-Jul-16 19:33N 47°35' W 122°32'0 0.4
2014-Jul-16 19:22N 47°34' W 122°32'0 0.3
2014-Jul-16 18:33N 47°35' W 122°32'0 0.0
2014-Jul-16 17:33N 47°35' W 122°32'0 0.0
2014-Jul-16 16:33N 47°35' W 122°32'0 0.0
2014-Jul-16 15:33N 47°35' W 122°32'0 0.0
2014-Jul-16 14:37N 47°35' W 122°32'0 0.2
2014-Jul-16 14:33N 47°35' W 122°32'0 1.8
2014-Jul-16 14:32N 47°35' W 122°32'7 6.8
2014-Jul-16 13:33N 47°38' W 122°23'0 1.3
2014-Jul-16 13:32N 47°38' W 122°23'0 0.1
2014-Jul-16 12:33N 47°38' W 122°23'0 0.0
2014-Jul-16 12:32N 47°38' W 122°23'0 0.0
2014-Jul-16 11:33N 47°38' W 122°23'0 0.0
2014-Jul-16 11:32N 47°38' W 122°23'0 0.0
2014-Jul-16 10:33N 47°38' W 122°23'0 0.0
2014-Jul-16 10:32N 47°38' W 122°23'0 0.0
2014-Jul-16 09:33N 47°38' W 122°23'0 0.0
2014-Jul-16 09:32N 47°38' W 122°23'0 0.0
2014-Jul-16 08:33N 47°38' W 122°23'0 0.0
2014-Jul-16 08:32N 47°38' W 122°23'0 0.0
2014-Jul-16 07:33N 47°38' W 122°23'0 0.0
2014-Jul-16 07:32N 47°38' W 122°23'0 0.0
2014-Jul-16 06:33N 47°38' W 122°23'0 0.0
2014-Jul-16 06:32N 47°38' W 122°23'0 0.0
2014-Jul-16 05:57N 47°38' W 122°23'0 0.0
2014-Jul-16 05:33N 47°38' W 122°23'0 0.0
2014-Jul-16 04:33N 47°38' W 122°23'0 0.0
2014-Jul-16 04:32N 47°38' W 122°23'0 0.0
2014-Jul-16 03:33N 47°38' W 122°23'0 0.0
2014-Jul-16 03:31N 47°38' W 122°23'0 0.0
2014-Jul-16 02:33N 47°38' W 122°23'0 0.2
2014-Jul-16 02:31N 47°38' W 122°23'0 0.0
2014-Jul-16 01:33N 47°38' W 122°23'0 0.0
2014-Jul-16 01:31N 47°38' W 122°23'0 0.0
2014-Jul-16 00:33N 47°38' W 122°23'0 0.0
2014-Jul-16 00:31N 47°38' W 122°23'0 0.0
2014-Jul-15 23:33N 47°38' W 122°23'0 0.1
2014-Jul-15 23:31N 47°38' W 122°23'0 0.0
2014-Jul-15 22:33N 47°38' W 122°23'0 0.0
2014-Jul-15 22:31N 47°38' W 122°23'0 0.0
2014-Jul-15 21:33N 47°38' W 122°23'0 0.0
2014-Jul-15 21:26N 47°38' W 122°23'0 0.0
2014-Jul-15 20:33N 47°38' W 122°23'0 0.0
2014-Jul-15 20:31N 47°38' W 122°23'0 0.0
2014-Jul-15 19:33N 47°38' W 122°23'0 0.0
2014-Jul-15 19:31N 47°38' W 122°23'0 0.0
2014-Jul-15 18:33N 47°38' W 122°23'0 0.0
2014-Jul-15 18:31N 47°38' W 122°23'0 0.0
2014-Jul-15 17:33N 47°38' W 122°23'0 0.0
2014-Jul-15 17:30N 47°38' W 122°23'0 0.0
2014-Jul-15 16:33N 47°38' W 122°23'0 0.0
2014-Jul-15 16:30N 47°38' W 122°23'0 0.0
2014-Jul-15 15:33N 47°38' W 122°23'0 0.0
2014-Jul-15 15:30N 47°38' W 122°23'0 0.0
2014-Jul-15 14:33N 47°38' W 122°23'0 0.1
2014-Jul-15 14:30N 47°38' W 122°23'0 0.0
2014-Jul-15 13:33N 47°38' W 122°23'0 0.0
2014-Jul-15 13:30N 47°38' W 122°23'0 0.0
2014-Jul-15 12:33N 47°38' W 122°23'0 0.0
2014-Jul-15 12:30N 47°38' W 122°23'0 0.0
2014-Jul-15 11:33N 47°38' W 122°23'0 0.0
2014-Jul-15 11:30N 47°38' W 122°23'0 0.0
2014-Jul-15 10:33N 47°38' W 122°23'0 0.0
2014-Jul-15 10:30N 47°38' W 122°23'0 0.0
2014-Jul-15 09:33N 47°38' W 122°23'0 0.0
2014-Jul-15 09:30N 47°38' W 122°23'0 0.0
2014-Jul-15 08:50N 47°38' W 122°23'0 0.0
2014-Jul-15 08:33N 47°38' W 122°23'0 0.0
2014-Jul-15 07:33N 47°38' W 122°23'0 0.0
2014-Jul-15 07:30N 47°38' W 122°23'0 0.0
2014-Jul-15 06:33N 47°38' W 122°23'0 0.0
2014-Jul-15 06:29N 47°38' W 122°23'0 0.0
2014-Jul-15 05:33N 47°38' W 122°23'0 0.0
2014-Jul-15 05:29N 47°38' W 122°23'0 0.0
2014-Jul-15 04:33N 47°38' W 122°23'0 0.0
2014-Jul-15 04:29N 47°38' W 122°23'0 0.0
2014-Jul-15 03:33N 47°38' W 122°23'0 0.0
2014-Jul-15 03:29N 47°38' W 122°23'5 5.6
2014-Jul-15 02:33N 47°35' W 122°29'1 7.8
2014-Jul-15 02:29N 47°34' W 122°30'1 1.3
2014-Jul-15 01:33N 47°35' W 122°32'0 0.0
2014-Jul-15 01:08N 47°35' W 122°32'0 0.0
2014-Jul-15 00:33N 47°35' W 122°32'0 0.0
2014-Jul-14 23:33N 47°35' W 122°32'0 0.0
2014-Jul-14 23:29N 47°35' W 122°32'0 0.0
2014-Jul-14 22:33N 47°35' W 122°32'0 0.0
2014-Jul-14 22:23N 47°35' W 122°32'0 0.0
2014-Jul-14 21:33N 47°35' W 122°32'0 0.1
2014-Jul-14 21:28N 47°35' W 122°32'0 0.0
2014-Jul-14 20:33N 47°35' W 122°32'0 0.0
2014-Jul-14 20:23N 47°35' W 122°32'0 0.2
2014-Jul-14 19:33N 47°35' W 122°32'199.8
2014-Jul-14 19:33N 47°36' W 122°32'1 1.0
2014-Jul-14 18:32N 47°35' W 122°32'0 0.0
2014-Jul-14 17:33N 47°35' W 122°32'0 0.1
2014-Jul-14 17:28N 47°35' W 122°32'0 0.0
2014-Jul-14 16:33N 47°35' W 122°32'0 0.1
2014-Jul-14 16:22N 47°34' W 122°32'5 6.2
2014-Jul-14 15:33N 47°37' W 122°25'0 5.0
2014-Jul-14 15:33N 47°37' W 122°25'2 1.8
2014-Jul-14 14:33N 47°38' W 122°23'0 0.6
2014-Jul-14 14:33N 47°38' W 122°23'0 0.0
2014-Jul-14 13:33N 47°38' W 122°23'0 0.0
2014-Jul-14 13:33N 47°38' W 122°23'0 0.0
2014-Jul-14 12:33N 47°38' W 122°23'0 0.0
2014-Jul-14 12:33N 47°38' W 122°23'0 0.0
2014-Jul-14 11:32N 47°38' W 122°23'0 0.0
2014-Jul-14 11:32N 47°38' W 122°23'0 0.0
2014-Jul-14 10:33N 47°38' W 122°23'0 0.0
2014-Jul-14 10:33N 47°38' W 122°23'6658.7
2014-Jul-14 09:26N 48°43' W 122°23'6671.4
2014-Jul-14 08:31N 47°38' W 122°23'0 0.0
2014-Jul-14 08:28N 47°38' W 122°23'0 0.0
2014-Jul-14 07:33N 47°38' W 122°23'0 0.0
2014-Jul-14 07:33N 47°38' W 122°23'0 0.0
2014-Jul-14 06:33N 47°38' W 122°23'0 0.0
2014-Jul-14 06:33N 47°38' W 122°23'0 0.0
2014-Jul-14 05:58N 47°38' W 122°23'0 0.0
2014-Jul-14 05:33N 47°38' W 122°23'0 0.0
2014-Jul-14 04:33N 47°38' W 122°23'0 0.6
2014-Jul-14 04:33N 47°38' W 122°23'0 0.0
2014-Jul-14 03:33N 47°38' W 122°23'0 0.0
2014-Jul-14 03:33N 47°38' W 122°23'0 0.0
2014-Jul-14 02:33N 47°38' W 122°23'0 0.6
2014-Jul-14 02:33N 47°38' W 122°23'0 0.0
2014-Jul-14 01:33N 47°38' W 122°23'0 0.0
2014-Jul-14 01:33N 47°38' W 122°23'0 0.0
2014-Jul-14 00:33N 47°38' W 122°23'0 0.0
2014-Jul-14 00:32N 47°38' W 122°23'0 0.0
2014-Jul-13 23:33N 47°38' W 122°23'0 0.0
2014-Jul-13 23:32N 47°38' W 122°23'0 0.0
2014-Jul-13 22:33N 47°38' W 122°23'0 0.0
2014-Jul-13 22:32N 47°38' W 122°23'0 0.0
2014-Jul-13 21:33N 47°38' W 122°23'0 0.0
2014-Jul-13 21:32N 47°38' W 122°23'0 0.0
2014-Jul-13 20:33N 47°38' W 122°23'0 0.0
2014-Jul-13 20:27N 47°38' W 122°23'0 0.0
2014-Jul-13 19:33N 47°38' W 122°23'0 0.0
2014-Jul-13 19:32N 47°38' W 122°23'0 0.0
2014-Jul-13 18:33N 47°38' W 122°23'0 0.0
2014-Jul-13 18:32N 47°38' W 122°23'0 0.0
2014-Jul-13 17:33N 47°38' W 122°23'0 0.0
2014-Jul-13 17:32N 47°38' W 122°23'0 0.0
2014-Jul-13 16:33N 47°38' W 122°23'0 0.0
2014-Jul-13 16:31N 47°38' W 122°23'0 0.0
2014-Jul-13 15:33N 47°38' W 122°23'0 0.2
2014-Jul-13 15:31N 47°38' W 122°23'0 0.0
2014-Jul-13 14:33N 47°38' W 122°23'0 0.0
2014-Jul-13 14:31N 47°38' W 122°23'6668.3
2014-Jul-13 13:33N 48°43' W 122°23'661512.4
2014-Jul-13 13:31N 47°38' W 122°23'0 0.0
2014-Jul-13 12:33N 47°38' W 122°23'0 0.1
2014-Jul-13 12:31N 47°38' W 122°23'0 0.0
2014-Jul-13 11:33N 47°38' W 122°23'0 0.0
2014-Jul-13 11:31N 47°38' W 122°23'6668.1
2014-Jul-13 10:33N 48°43' W 122°23'661760.7
2014-Jul-13 10:31N 47°38' W 122°23'0 0.0
2014-Jul-13 09:33N 47°38' W 122°23'0 0.2
2014-Jul-13 09:31N 47°38' W 122°23'0 0.0
2014-Jul-13 08:33N 47°38' W 122°23'0 0.1
2014-Jul-13 08:31N 47°38' W 122°23'0 0.0
2014-Jul-13 07:33N 47°38' W 122°23'0 0.0
2014-Jul-13 07:31N 47°38' W 122°23'0 0.0
2014-Jul-13 06:33N 47°38' W 122°23'0 0.0
2014-Jul-13 06:31N 47°38' W 122°23'0 0.0
2014-Jul-13 06:00N 47°38' W 122°23'0 0.0
2014-Jul-13 05:33N 47°38' W 122°23'0 0.0
2014-Jul-13 04:33N 47°38' W 122°23'0 0.0
2014-Jul-13 03:38N 47°38' W 122°23'0 0.0
2014-Jul-13 03:34N 47°38' W 122°23'0 0.0
2014-Jul-13 03:07N 47°38' W 122°23'0 0.0
2014-Jul-13 02:33N 47°38' W 122°23'0 0.2
2014-Jul-13 02:32N 47°38' W 122°23'0 0.0
2014-Jul-13 01:33N 47°38' W 122°23'0 0.0
2014-Jul-13 01:32N 47°38' W 122°23'0 0.0
2014-Jul-13 00:33N 47°38' W 122°23'0 0.0
2014-Jul-13 00:32N 47°38' W 122°23'0 0.0
2014-Jul-12 23:33N 47°38' W 122°23'0 0.0
2014-Jul-12 23:32N 47°38' W 122°23'0 0.0
2014-Jul-12 22:33N 47°38' W 122°23'0 0.0
2014-Jul-12 22:32N 47°38' W 122°23'0 0.0
2014-Jul-12 21:33N 47°38' W 122°23'0 0.0
2014-Jul-12 21:32N 47°38' W 122°23'0 0.0
2014-Jul-12 20:33N 47°38' W 122°23'0 0.0
2014-Jul-12 20:32N 47°38' W 122°23'0 0.0
2014-Jul-12 19:33N 47°38' W 122°23'  
Track history (hours):
 
Tides and Currents Weather Stations Pressure Air Temp Water Temp Dewpoint Dewpoint Depression Visibility Wind Speed Wind Dir Waves Ship Positions

F/V Harvestor

More information available from US FCC via Universal Licensing System and Coast Guard Vessel Documentation Center.

Last reported at 2014-Jul-22 19:33 UTC. Time now 2014-Jul-22 19:36 UTC.
Position N 47°38' W 122°23'.

Length 40 m.

Type: Fishing. MMSI: 367083650.

Date/timePositionNaut miles runAvg speedWind from/ knotsBaromVisibWave heightAir tempDewpointWater temp
2014-Jul-22 19:33N 47°38' W 122°23'0 0.0
2014-Jul-22 19:30N 47°38' W 122°23'0 0.0
2014-Jul-22 18:33N 47°38' W 122°23'0 0.0
2014-Jul-22 18:30N 47°38' W 122°23'0 0.0
2014-Jul-22 17:33N 47°38' W 122°23'0 0.0
2014-Jul-22 17:29N 47°38' W 122°23'0 0.0
2014-Jul-22 16:33N 47°38' W 122°23'0 0.1
2014-Jul-22 16:29N 47°38' W 122°23'0 0.0
2014-Jul-22 15:33N 47°38' W 122°23'0 0.0
2014-Jul-22 15:24N 47°38' W 122°23'0 0.0
2014-Jul-22 14:34N 47°38' W 122°23'0 0.0
2014-Jul-22 14:33N 47°38' W 122°23'0 0.0
2014-Jul-22 13:33N 47°38' W 122°23'0 0.0
2014-Jul-22 13:33N 47°38' W 122°23'0 0.0
2014-Jul-22 12:33N 47°38' W 122°23'0 0.0
2014-Jul-22 12:33N 47°38' W 122°23'0 0.0
2014-Jul-22 11:33N 47°38' W 122°23'0 0.0
2014-Jul-22 11:33N 47°38' W 122°23'0 0.0
2014-Jul-22 10:33N 47°38' W 122°23'0 0.3
2014-Jul-22 10:32N 47°38' W 122°23'0 0.0
2014-Jul-22 09:33N 47°38' W 122°23'0 0.0
2014-Jul-22 09:32N 47°38' W 122°23'0 0.0
2014-Jul-22 08:33N 47°38' W 122°23'0 0.0
2014-Jul-22 08:32N 47°38' W 122°23'0 0.0
2014-Jul-22 07:33N 47°38' W 122°23'0 0.0
2014-Jul-22 07:32N 47°38' W 122°23'0 0.0
2014-Jul-22 06:33N 47°38' W 122°23'0 0.0
2014-Jul-22 05:33N 47°38' W 122°23'0 0.1
2014-Jul-22 05:29N 47°38' W 122°23'0 0.0
2014-Jul-22 04:34N 47°38' W 122°23'0 0.0
2014-Jul-22 04:33N 47°38' W 122°23'0 0.0
2014-Jul-22 03:34N 47°38' W 122°23'0 0.7
2014-Jul-22 03:33N 47°38' W 122°23'0 0.0
2014-Jul-22 02:32N 47°38' W 122°23'0 0.0
2014-Jul-22 02:18N 47°38' W 122°23'0 0.0
2014-Jul-22 01:29N 47°38' W 122°23'0 0.0
2014-Jul-22 01:27N 47°38' W 122°23'0 0.0
2014-Jul-22 00:33N 47°38' W 122°23'0 0.0
2014-Jul-22 00:32N 47°38' W 122°23'3 3.2
2014-Jul-21 23:33N 47°36' W 122°26'0 8.2
2014-Jul-21 23:32N 47°36' W 122°27'3 3.6
2014-Jul-21 22:33N 47°35' W 122°32'0 0.0
2014-Jul-21 21:43N 47°35' W 122°32'0 0.0
2014-Jul-21 21:33N 47°35' W 122°32'0 0.0
2014-Jul-21 20:33N 47°35' W 122°32'0 0.0
2014-Jul-21 20:18N 47°35' W 122°32'0 0.0
2014-Jul-21 19:33N 47°35' W 122°32'0 0.0
2014-Jul-21 18:33N 47°35' W 122°32'0 1.6
2014-Jul-21 18:30N 47°35' W 122°32'0 0.1
2014-Jul-21 17:33N 47°35' W 122°32'0 0.0
2014-Jul-21 17:21N 47°35' W 122°32'0 0.0
2014-Jul-21 16:33N 47°35' W 122°32'0 0.0
2014-Jul-21 16:31N 47°35' W 122°32'0 0.3
2014-Jul-21 15:33N 47°34' W 122°31'1 6.2
2014-Jul-21 15:25N 47°34' W 122°30'6 7.0
2014-Jul-21 14:33N 47°38' W 122°23'0 0.9
2014-Jul-21 14:30N 47°38' W 122°23'0 0.0
2014-Jul-21 13:33N 47°38' W 122°23'0 0.0
2014-Jul-21 13:30N 47°38' W 122°23'0 0.0
2014-Jul-21 12:33N 47°38' W 122°23'0 0.0
2014-Jul-21 12:30N 47°38' W 122°23'0 0.0
2014-Jul-21 11:33N 47°38' W 122°23'0 0.0
2014-Jul-21 11:32N 47°38' W 122°23'0 0.0
2014-Jul-21 10:33N 47°38' W 122°23'0 0.0
2014-Jul-21 10:33N 47°38' W 122°23'0 0.0
2014-Jul-21 09:33N 47°38' W 122°23'0 0.0
2014-Jul-21 08:33N 47°38' W 122°23'0 0.0
2014-Jul-21 08:33N 47°38' W 122°23'0 0.0
2014-Jul-21 07:33N 47°38' W 122°23'0 0.0
2014-Jul-21 07:31N 47°38' W 122°23'0 0.0
2014-Jul-21 06:33N 47°38' W 122°23'0 0.0
2014-Jul-21 06:33N 47°38' W 122°23'0 0.0
2014-Jul-21 05:43N 47°38' W 122°23'0 0.0
2014-Jul-21 05:33N 47°38' W 122°23'0 0.0
2014-Jul-21 04:33N 47°38' W 122°23'0 0.0
2014-Jul-21 04:32N 47°38' W 122°23'0 0.0
2014-Jul-21 03:33N 47°38' W 122°23'0 0.0
2014-Jul-21 03:32N 47°38' W 122°23'0 0.0
2014-Jul-21 02:33N 47°38' W 122°23'0 0.0
2014-Jul-21 02:32N 47°38' W 122°23'0 0.0
2014-Jul-21 01:33N 47°38' W 122°23'0 0.0
2014-Jul-21 01:31N 47°38' W 122°23'0 0.0
2014-Jul-21 00:33N 47°38' W 122°23'0 0.0
2014-Jul-21 00:31N 47°38' W 122°23'0 0.0
2014-Jul-20 23:33N 47°38' W 122°23'0 0.0
2014-Jul-20 23:31N 47°38' W 122°23'0 0.0
2014-Jul-20 22:33N 47°38' W 122°23'0 0.0
2014-Jul-20 22:31N 47°38' W 122°23'0 0.0
2014-Jul-20 21:33N 47°38' W 122°23'0 0.0
2014-Jul-20 21:30N 47°38' W 122°23'0 0.0
2014-Jul-20 20:33N 47°38' W 122°23'0 0.0
2014-Jul-20 20:19N 47°38' W 122°23'0 0.0
2014-Jul-20 19:33N 47°38' W 122°23'0 0.0
2014-Jul-20 19:29N 47°38' W 122°23'0 0.0
2014-Jul-20 18:33N 47°38' W 122°23'0 0.0
2014-Jul-20 18:29N 47°38' W 122°23'0 0.0
2014-Jul-20 17:33N 47°38' W 122°23'0 0.0
2014-Jul-20 17:29N 47°38' W 122°23'0 0.0
2014-Jul-20 16:33N 47°38' W 122°23'0 0.0
2014-Jul-20 16:22N 47°38' W 122°23'0 0.0
2014-Jul-20 15:33N 47°38' W 122°23'0 0.0
2014-Jul-20 15:32N 47°38' W 122°23'0 0.0
2014-Jul-20 14:33N 47°38' W 122°23'0 0.0
2014-Jul-20 14:32N 47°38' W 122°23'0 0.0
2014-Jul-20 13:33N 47°38' W 122°23'0 0.0
2014-Jul-20 13:06N 47°38' W 122°23'0 0.0
2014-Jul-20 12:33N 47°38' W 122°23'0 0.0
2014-Jul-20 12:31N 47°38' W 122°23'0 0.0
2014-Jul-20 11:33N 47°38' W 122°23'0 0.0
2014-Jul-20 11:31N 47°38' W 122°23'0 0.0
2014-Jul-20 10:33N 47°38' W 122°23'0 0.0
2014-Jul-20 10:30N 47°38' W 122°23'0 0.0
2014-Jul-20 09:33N 47°38' W 122°23'0 0.0
2014-Jul-20 09:23N 47°38' W 122°23'0 0.0
2014-Jul-20 08:33N 47°38' W 122°23'0 0.0
2014-Jul-20 08:33N 47°38' W 122°23'0 0.0
2014-Jul-20 07:33N 47°38' W 122°23'0 0.0
2014-Jul-20 07:33N 47°38' W 122°23'0 0.0
2014-Jul-20 06:33N 47°38' W 122°23'0 0.0
2014-Jul-20 06:33N 47°38' W 122°23'0 0.0
2014-Jul-20 05:53N 47°38' W 122°23'0 0.0
2014-Jul-20 05:33N 47°38' W 122°23'0 0.0
2014-Jul-20 04:33N 47°38' W 122°23'0 0.0
2014-Jul-20 04:32N 47°38' W 122°23'0 0.0
2014-Jul-20 03:33N 47°38' W 122°23'0 0.0
2014-Jul-20 03:33N 47°38' W 122°23'0 0.0
2014-Jul-20 02:33N 47°38' W 122°23'0 0.0
2014-Jul-20 02:32N 47°38' W 122°23'0 0.0
2014-Jul-20 01:33N 47°38' W 122°23'0 0.0
2014-Jul-20 01:32N 47°38' W 122°23'0 0.0
2014-Jul-20 00:33N 47°38' W 122°23'0 0.0
2014-Jul-20 00:32N 47°38' W 122°23'0 0.0
2014-Jul-19 23:33N 47°38' W 122°23'0 0.0
2014-Jul-19 23:32N 47°38' W 122°23'0 0.0
2014-Jul-19 22:33N 47°38' W 122°23'0 0.0
2014-Jul-19 22:32N 47°38' W 122°23'0 0.0
2014-Jul-19 21:33N 47°38' W 122°23'0 0.0
2014-Jul-19 21:32N 47°38' W 122°23'0 0.0
2014-Jul-19 20:33N 47°38' W 122°23'0 0.0
2014-Jul-19 20:32N 47°38' W 122°23'0 0.0
2014-Jul-19 19:33N 47°38' W 122°23'0 0.0
2014-Jul-19 19:31N 47°38' W 122°23'0 0.0
2014-Jul-19 18:33N 47°38' W 122°23'0 0.0
2014-Jul-19 18:31N 47°38' W 122°23'0 0.0
2014-Jul-19 17:33N 47°38' W 122°23'0 0.0
2014-Jul-19 17:31N 47°38' W 122°23'0 0.0
2014-Jul-19 16:33N 47°38' W 122°23'0 0.0
2014-Jul-19 16:31N 47°38' W 122°23'0 0.0
2014-Jul-19 15:33N 47°38' W 122°23'0 0.2
2014-Jul-19 15:31N 47°38' W 122°23'0 0.0
2014-Jul-19 14:33N 47°38' W 122°23'0 0.0
2014-Jul-19 14:31N 47°38' W 122°23'0 0.0
2014-Jul-19 13:33N 47°38' W 122°23'0 0.0
2014-Jul-19 13:31N 47°38' W 122°23'0 0.0
2014-Jul-19 12:33N 47°38' W 122°23'0 0.0
2014-Jul-19 12:31N 47°38' W 122°23'0 0.0
2014-Jul-19 11:33N 47°38' W 122°23'0 0.0
2014-Jul-19 11:31N 47°38' W 122°23'0 0.0
2014-Jul-19 10:33N 47°38' W 122°23'0 0.0
2014-Jul-19 10:31N 47°38' W 122°23'0 0.0
2014-Jul-19 09:33N 47°38' W 122°23'0 0.0
2014-Jul-19 09:31N 47°38' W 122°23'0 0.0
2014-Jul-19 08:33N 47°38' W 122°23'0 0.0
2014-Jul-19 08:31N 47°38' W 122°23'0 0.0
2014-Jul-19 07:33N 47°38' W 122°23'0 0.0
2014-Jul-19 07:31N 47°38' W 122°23'0 0.0
2014-Jul-19 06:33N 47°38' W 122°23'0 0.0
2014-Jul-19 06:30N 47°38' W 122°23'0 0.0
2014-Jul-19 05:50N 47°38' W 122°23'0 0.0
2014-Jul-19 05:33N 47°38' W 122°23'0 0.0
2014-Jul-19 04:33N 47°38' W 122°23'0 0.0
2014-Jul-19 04:30N 47°38' W 122°23'0 0.0
2014-Jul-19 03:33N 47°38' W 122°23'0 0.0
2014-Jul-19 03:30N 47°38' W 122°23'0 0.0
2014-Jul-19 02:33N 47°38' W 122°23'0 0.0
2014-Jul-19 02:30N 47°38' W 122°23'0 0.0
2014-Jul-19 01:33N 47°38' W 122°23'0 0.0
2014-Jul-19 01:30N 47°38' W 122°23'0 0.0
2014-Jul-19 00:33N 47°38' W 122°23'0 0.0
2014-Jul-19 00:30N 47°38' W 122°23'0 0.0
2014-Jul-18 23:33N 47°38' W 122°23'0 0.0
2014-Jul-18 23:30N 47°38' W 122°23'0 0.0
2014-Jul-18 22:33N 47°38' W 122°23'0 0.0
2014-Jul-18 22:20N 47°38' W 122°23'0 0.0
2014-Jul-18 21:33N 47°38' W 122°23'0 0.0
2014-Jul-18 21:29N 47°38' W 122°23'0 0.0
2014-Jul-18 20:33N 47°38' W 122°23'0 0.0
2014-Jul-18 20:17N 47°38' W 122°23'0 0.0
2014-Jul-18 19:33N 47°38' W 122°23'0 0.0
2014-Jul-18 19:32N 47°38' W 122°23'0 0.0
2014-Jul-18 18:33N 47°38' W 122°23'0 0.0
2014-Jul-18 18:33N 47°38' W 122°23'0 0.0
2014-Jul-18 17:33N 47°38' W 122°23'0 0.0
2014-Jul-18 17:33N 47°38' W 122°23'0 0.0
2014-Jul-18 16:33N 47°38' W 122°23'0 0.0
2014-Jul-18 16:33N 47°38' W 122°23'0 0.0
2014-Jul-18 15:33N 47°38' W 122°23'0 0.0
2014-Jul-18 15:32N 47°38' W 122°23'0 0.0
2014-Jul-18 14:33N 47°38' W 122°23'0 0.3
2014-Jul-18 14:32N 47°38' W 122°23'0 0.0
2014-Jul-18 13:32N 47°38' W 122°23'0 0.0
2014-Jul-18 13:31N 47°38' W 122°23'0 0.0
2014-Jul-18 12:33N 47°38' W 122°23'0 0.0
2014-Jul-18 12:31N 47°38' W 122°23'0 0.0
2014-Jul-18 11:33N 47°38' W 122°23'0 0.0
2014-Jul-18 10:31N 47°38' W 122°23'0 0.0
2014-Jul-18 10:29N 47°38' W 122°23'0 0.0
2014-Jul-18 09:33N 47°38' W 122°23'0 0.0
2014-Jul-18 09:29N 47°38' W 122°23'0 0.0
2014-Jul-18 08:33N 47°38' W 122°23'0 0.0
2014-Jul-18 08:29N 47°38' W 122°23'0 0.0
2014-Jul-18 07:33N 47°38' W 122°23'0 0.0
2014-Jul-18 07:27N 47°38' W 122°23'0 0.0
2014-Jul-18 06:33N 47°38' W 122°23'0 0.0
2014-Jul-18 06:32N 47°38' W 122°23'0 0.0
2014-Jul-18 05:47N 47°38' W 122°23'0 0.0
2014-Jul-18 05:33N 47°38' W 122°23'0 0.0
2014-Jul-18 04:33N 47°38' W 122°23'0 0.0
2014-Jul-18 04:21N 47°38' W 122°23'0 0.0
2014-Jul-18 03:33N 47°38' W 122°23'0 0.2
2014-Jul-18 03:32N 47°38' W 122°23'0 0.0
2014-Jul-18 02:34N 47°38' W 122°23'0 0.0
2014-Jul-18 02:31N 47°38' W 122°23'0 0.0
2014-Jul-18 01:33N 47°38' W 122°23'0 0.2
2014-Jul-18 01:31N 47°38' W 122°23'0 0.0
2014-Jul-18 00:33N 47°38' W 122°23'0 0.0
2014-Jul-18 00:31N 47°38' W 122°23'0 0.0
2014-Jul-17 23:33N 47°38' W 122°23'0 0.0
2014-Jul-17 23:31N 47°38' W 122°23'0 0.0
2014-Jul-17 22:33N 47°38' W 122°23'0 0.2
2014-Jul-17 22:31N 47°38' W 122°23'0 0.0
2014-Jul-17 21:33N 47°38' W 122°23'0 0.0
2014-Jul-17 21:30N 47°38' W 122°23'0 0.0
2014-Jul-17 20:33N 47°38' W 122°23'0 0.0
2014-Jul-17 20:31N 47°38' W 122°23'0 0.0
2014-Jul-17 19:33N 47°38' W 122°23'0 0.0
2014-Jul-17 19:30N 47°38' W 122°23'0 0.0
2014-Jul-17 18:33N 47°38' W 122°23'0 0.0
2014-Jul-17 18:24N 47°38' W 122°23'0 0.0
2014-Jul-17 17:33N 47°38' W 122°23'0 0.0
2014-Jul-17 17:30N 47°38' W 122°23'0 0.0
2014-Jul-17 16:33N 47°38' W 122°23'0 0.0
2014-Jul-17 16:30N 47°38' W 122°23'0 0.0
2014-Jul-17 15:33N 47°38' W 122°23'0 0.0
2014-Jul-17 15:29N 47°38' W 122°23'0 0.0
2014-Jul-17 14:33N 47°38' W 122°23'0 0.0
2014-Jul-17 14:29N 47°38' W 122°23'0 0.0
2014-Jul-17 13:33N 47°38' W 122°23'0 0.0
2014-Jul-17 13:29N 47°38' W 122°23'0 0.0
2014-Jul-17 12:33N 47°38' W 122°23'0 0.0
2014-Jul-17 12:29N 47°38' W 122°23'0 0.0
2014-Jul-17 11:33N 47°38' W 122°23'0 0.0
2014-Jul-17 11:29N 47°38' W 122°23'0 0.0
2014-Jul-17 10:33N 47°38' W 122°23'0 0.0
2014-Jul-17 10:29N 47°38' W 122°23'0 0.0
2014-Jul-17 09:33N 47°38' W 122°23'0 0.0
2014-Jul-17 09:29N 47°38' W 122°23'0 0.0
2014-Jul-17 08:33N 47°38' W 122°23'0 0.0
2014-Jul-17 08:29N 47°38' W 122°23'0 0.0
2014-Jul-17 07:33N 47°38' W 122°23'0 0.0
2014-Jul-17 07:24N 47°38' W 122°23'0 0.0
2014-Jul-17 06:33N 47°38' W 122°23'0 0.0
2014-Jul-17 06:29N 47°38' W 122°23'0 0.0
2014-Jul-17 05:54N 47°38' W 122°23'0 0.0
2014-Jul-17 05:33N 47°38' W 122°23'0 0.0
2014-Jul-17 04:34N 47°38' W 122°23'0 0.0
2014-Jul-17 04:33N 47°38' W 122°23'0 0.0
2014-Jul-17 03:34N 47°38' W 122°23'0 0.0
2014-Jul-17 03:33N 47°38' W 122°23'0 0.0
2014-Jul-17 02:33N 47°38' W 122°23'0 0.0
2014-Jul-17 02:33N 47°38' W 122°23'0 0.0
2014-Jul-17 01:33N 47°38' W 122°23'0 0.0
2014-Jul-17 01:33N 47°38' W 122°23'0 0.0
2014-Jul-17 00:33N 47°38' W 122°23'0 0.0
2014-Jul-17 00:33N 47°38' W 122°23'6 6.5
2014-Jul-16 23:34N 47°34' W 122°31'1 1.4
2014-Jul-16 23:02N 47°35' W 122°32'0 0.0
2014-Jul-16 22:33N 47°35' W 122°32'0 0.0
2014-Jul-16 21:33N 47°35' W 122°32'0 0.0
2014-Jul-16 21:13N 47°35' W 122°32'0 0.0
2014-Jul-16 20:33N 47°35' W 122°32'0 0.0
2014-Jul-16 20:17N 47°35' W 122°32'0 0.0
2014-Jul-16 19:33N 47°35' W 122°32'0 0.4
2014-Jul-16 19:22N 47°34' W 122°32'0 0.3
2014-Jul-16 18:33N 47°35' W 122°32'0 0.0
2014-Jul-16 17:33N 47°35' W 122°32'0 0.0
2014-Jul-16 16:33N 47°35' W 122°32'0 0.0
2014-Jul-16 15:33N 47°35' W 122°32'0 0.0
2014-Jul-16 14:37N 47°35' W 122°32'0 0.2
2014-Jul-16 14:33N 47°35' W 122°32'0 1.8
2014-Jul-16 14:32N 47°35' W 122°32'7 6.8
2014-Jul-16 13:33N 47°38' W 122°23'0 1.3
2014-Jul-16 13:32N 47°38' W 122°23'0 0.1
2014-Jul-16 12:33N 47°38' W 122°23'0 0.0
2014-Jul-16 12:32N 47°38' W 122°23'0 0.0
2014-Jul-16 11:33N 47°38' W 122°23'0 0.0
2014-Jul-16 11:32N 47°38' W 122°23'0 0.0
2014-Jul-16 10:33N 47°38' W 122°23'0 0.0
2014-Jul-16 10:32N 47°38' W 122°23'0 0.0
2014-Jul-16 09:33N 47°38' W 122°23'0 0.0
2014-Jul-16 09:32N 47°38' W 122°23'0 0.0
2014-Jul-16 08:33N 47°38' W 122°23'0 0.0
2014-Jul-16 08:32N 47°38' W 122°23'0 0.0
2014-Jul-16 07:33N 47°38' W 122°23'0 0.0
2014-Jul-16 07:32N 47°38' W 122°23'0 0.0
2014-Jul-16 06:33N 47°38' W 122°23'0 0.0
2014-Jul-16 06:32N 47°38' W 122°23'0 0.0
2014-Jul-16 05:57N 47°38' W 122°23'0 0.0
2014-Jul-16 05:33N 47°38' W 122°23'0 0.0
2014-Jul-16 04:33N 47°38' W 122°23'0 0.0
2014-Jul-16 04:32N 47°38' W 122°23'0 0.0
2014-Jul-16 03:33N 47°38' W 122°23'0 0.0
2014-Jul-16 03:31N 47°38' W 122°23'0 0.0
2014-Jul-16 02:33N 47°38' W 122°23'0 0.2
2014-Jul-16 02:31N 47°38' W 122°23'0 0.0
2014-Jul-16 01:33N 47°38' W 122°23'0 0.0
2014-Jul-16 01:31N 47°38' W 122°23'0 0.0
2014-Jul-16 00:33N 47°38' W 122°23'0 0.0
2014-Jul-16 00:31N 47°38' W 122°23'0 0.0
2014-Jul-15 23:33N 47°38' W 122°23'0 0.1
2014-Jul-15 23:31N 47°38' W 122°23'0 0.0
2014-Jul-15 22:33N 47°38' W 122°23'0 0.0
2014-Jul-15 22:31N 47°38' W 122°23'0 0.0
2014-Jul-15 21:33N 47°38' W 122°23'0 0.0
2014-Jul-15 21:26N 47°38' W 122°23'0 0.0
2014-Jul-15 20:33N 47°38' W 122°23'0 0.0
2014-Jul-15 20:31N 47°38' W 122°23'0 0.0
2014-Jul-15 19:33N 47°38' W 122°23'0 0.0
2014-Jul-15 19:31N 47°38' W 122°23'0 0.0
2014-Jul-15 18:33N 47°38' W 122°23'0 0.0
2014-Jul-15 18:31N 47°38' W 122°23'0 0.0
2014-Jul-15 17:33N 47°38' W 122°23'0 0.0
2014-Jul-15 17:30N 47°38' W 122°23'0 0.0
2014-Jul-15 16:33N 47°38' W 122°23'0 0.0
2014-Jul-15 16:30N 47°38' W 122°23'0 0.0
2014-Jul-15 15:33N 47°38' W 122°23'0 0.0
2014-Jul-15 15:30N 47°38' W 122°23'0 0.0
2014-Jul-15 14:33N 47°38' W 122°23'0 0.1
2014-Jul-15 14:30N 47°38' W 122°23'0 0.0
2014-Jul-15 13:33N 47°38' W 122°23'0 0.0
2014-Jul-15 13:30N 47°38' W 122°23'0 0.0
2014-Jul-15 12:33N 47°38' W 122°23'0 0.0
2014-Jul-15 12:30N 47°38' W 122°23'0 0.0
2014-Jul-15 11:33N 47°38' W 122°23'0 0.0
2014-Jul-15 11:30N 47°38' W 122°23'0 0.0
2014-Jul-15 10:33N 47°38' W 122°23'0 0.0
2014-Jul-15 10:30N 47°38' W 122°23'0 0.0
2014-Jul-15 09:33N 47°38' W 122°23'0 0.0
2014-Jul-15 09:30N 47°38' W 122°23'0 0.0
2014-Jul-15 08:50N 47°38' W 122°23'0 0.0
2014-Jul-15 08:33N 47°38' W 122°23'0 0.0
2014-Jul-15 07:33N 47°38' W 122°23'0 0.0
2014-Jul-15 07:30N 47°38' W 122°23'0 0.0
2014-Jul-15 06:33N 47°38' W 122°23'0 0.0
2014-Jul-15 06:29N 47°38' W 122°23'0 0.0
2014-Jul-15 05:33N 47°38' W 122°23'0 0.0
2014-Jul-15 05:29N 47°38' W 122°23'0 0.0
2014-Jul-15 04:33N 47°38' W 122°23'0 0.0
2014-Jul-15 04:29N 47°38' W 122°23'0 0.0
2014-Jul-15 03:33N 47°38' W 122°23'0 0.0
2014-Jul-15 03:29N 47°38' W 122°23'5 5.6
2014-Jul-15 02:33N 47°35' W 122°29'1 7.8
2014-Jul-15 02:29N 47°34' W 122°30'1 1.3
2014-Jul-15 01:33N 47°35' W 122°32'0 0.0
2014-Jul-15 01:08N 47°35' W 122°32'0 0.0
2014-Jul-15 00:33N 47°35' W 122°32'0 0.0
2014-Jul-14 23:33N 47°35' W 122°32'0 0.0
2014-Jul-14 23:29N 47°35' W 122°32'0 0.0
2014-Jul-14 22:33N 47°35' W 122°32'0 0.0
2014-Jul-14 22:23N 47°35' W 122°32'0 0.0
2014-Jul-14 21:33N 47°35' W 122°32'0 0.1
2014-Jul-14 21:28N 47°35' W 122°32'0 0.0
2014-Jul-14 20:33N 47°35' W 122°32'0 0.0
2014-Jul-14 20:23N 47°35' W 122°32'0 0.2
2014-Jul-14 19:33N 47°35' W 122°32'199.8
2014-Jul-14 19:33N 47°36' W 122°32'1 1.0
2014-Jul-14 18:32N 47°35' W 122°32'0 0.0
2014-Jul-14 17:33N 47°35' W 122°32'0 0.1
2014-Jul-14 17:28N 47°35' W 122°32'0 0.0
2014-Jul-14 16:33N 47°35' W 122°32'0 0.1
2014-Jul-14 16:22N 47°34' W 122°32'5 6.2
2014-Jul-14 15:33N 47°37' W 122°25'0 5.0
2014-Jul-14 15:33N 47°37' W 122°25'2 1.8
2014-Jul-14 14:33N 47°38' W 122°23'0 0.6
2014-Jul-14 14:33N 47°38' W 122°23'0 0.0
2014-Jul-14 13:33N 47°38' W 122°23'0 0.0
2014-Jul-14 13:33N 47°38' W 122°23'0 0.0
2014-Jul-14 12:33N 47°38' W 122°23'0 0.0
2014-Jul-14 12:33N 47°38' W 122°23'0 0.0
2014-Jul-14 11:32N 47°38' W 122°23'0 0.0
2014-Jul-14 11:32N 47°38' W 122°23'0 0.0
2014-Jul-14 10:33N 47°38' W 122°23'0 0.0
2014-Jul-14 10:33N 47°38' W 122°23'6658.7
2014-Jul-14 09:26N 48°43' W 122°23'6671.4
2014-Jul-14 08:31N 47°38' W 122°23'0 0.0
2014-Jul-14 08:28N 47°38' W 122°23'0 0.0
2014-Jul-14 07:33N 47°38' W 122°23'0 0.0
2014-Jul-14 07:33N 47°38' W 122°23'0 0.0
2014-Jul-14 06:33N 47°38' W 122°23'0 0.0
2014-Jul-14 06:33N 47°38' W 122°23'0 0.0
2014-Jul-14 05:58N 47°38' W 122°23'0 0.0
2014-Jul-14 05:33N 47°38' W 122°23'0 0.0
2014-Jul-14 04:33N 47°38' W 122°23'0 0.6
2014-Jul-14 04:33N 47°38' W 122°23'0 0.0
2014-Jul-14 03:33N 47°38' W 122°23'0 0.0
2014-Jul-14 03:33N 47°38' W 122°23'0 0.0
2014-Jul-14 02:33N 47°38' W 122°23'0 0.6
2014-Jul-14 02:33N 47°38' W 122°23'0 0.0
2014-Jul-14 01:33N 47°38' W 122°23'0 0.0
2014-Jul-14 01:33N 47°38' W 122°23'0 0.0
2014-Jul-14 00:33N 47°38' W 122°23'0 0.0
2014-Jul-14 00:32N 47°38' W 122°23'0 0.0
2014-Jul-13 23:33N 47°38' W 122°23'0 0.0
2014-Jul-13 23:32N 47°38' W 122°23'0 0.0
2014-Jul-13 22:33N 47°38' W 122°23'0 0.0
2014-Jul-13 22:32N 47°38' W 122°23'0 0.0
2014-Jul-13 21:33N 47°38' W 122°23'0 0.0
2014-Jul-13 21:32N 47°38' W 122°23'0 0.0
2014-Jul-13 20:33N 47°38' W 122°23'0 0.0
2014-Jul-13 20:27N 47°38' W 122°23'0 0.0
2014-Jul-13 19:33N 47°38' W 122°23'0 0.0
2014-Jul-13 19:32N 47°38' W 122°23'0 0.0
2014-Jul-13 18:33N 47°38' W 122°23'0 0.0
2014-Jul-13 18:32N 47°38' W 122°23'0 0.0
2014-Jul-13 17:33N 47°38' W 122°23'0 0.0
2014-Jul-13 17:32N 47°38' W 122°23'0 0.0
2014-Jul-13 16:33N 47°38' W 122°23'0 0.0
2014-Jul-13 16:31N 47°38' W 122°23'0 0.0
2014-Jul-13 15:33N 47°38' W 122°23'0 0.2
2014-Jul-13 15:31N 47°38' W 122°23'0 0.0
2014-Jul-13 14:33N 47°38' W 122°23'0 0.0
2014-Jul-13 14:31N 47°38' W 122°23'6668.3
2014-Jul-13 13:33N 48°43' W 122°23'661512.4
2014-Jul-13 13:31N 47°38' W 122°23'0 0.0
2014-Jul-13 12:33N 47°38' W 122°23'0 0.1
2014-Jul-13 12:31N 47°38' W 122°23'0 0.0
2014-Jul-13 11:33N 47°38' W 122°23'0 0.0
2014-Jul-13 11:31N 47°38' W 122°23'6668.1
2014-Jul-13 10:33N 48°43' W 122°23'661760.7
2014-Jul-13 10:31N 47°38' W 122°23'0 0.0
2014-Jul-13 09:33N 47°38' W 122°23'0 0.2
2014-Jul-13 09:31N 47°38' W 122°23'0 0.0
2014-Jul-13 08:33N 47°38' W 122°23'0 0.1
2014-Jul-13 08:31N 47°38' W 122°23'0 0.0
2014-Jul-13 07:33N 47°38' W 122°23'0 0.0
2014-Jul-13 07:31N 47°38' W 122°23'0 0.0
2014-Jul-13 06:33N 47°38' W 122°23'0 0.0
2014-Jul-13 06:31N 47°38' W 122°23'0 0.0
2014-Jul-13 06:00N 47°38' W 122°23'0 0.0
2014-Jul-13 05:33N 47°38' W 122°23'0 0.0
2014-Jul-13 04:33N 47°38' W 122°23'0 0.0
2014-Jul-13 03:38N 47°38' W 122°23'0 0.0
2014-Jul-13 03:34N 47°38' W 122°23'0 0.0
2014-Jul-13 03:07N 47°38' W 122°23'0 0.0
2014-Jul-13 02:33N 47°38' W 122°23'0 0.2
2014-Jul-13 02:32N 47°38' W 122°23'0 0.0
2014-Jul-13 01:33N 47°38' W 122°23'0 0.0
2014-Jul-13 01:32N 47°38' W 122°23'0 0.0
2014-Jul-13 00:33N 47°38' W 122°23'0 0.0
2014-Jul-13 00:32N 47°38' W 122°23'0 0.0
2014-Jul-12 23:33N 47°38' W 122°23'0 0.0
2014-Jul-12 23:32N 47°38' W 122°23'0 0.0
2014-Jul-12 22:33N 47°38' W 122°23'0 0.0
2014-Jul-12 22:32N 47°38' W 122°23'0 0.0
2014-Jul-12 21:33N 47°38' W 122°23'0 0.0
2014-Jul-12 21:32N 47°38' W 122°23'0 0.0
2014-Jul-12 20:33N 47°38' W 122°23'0 0.0
2014-Jul-12 20:32N 47°38' W 122°23'0 0.0
2014-Jul-12 19:33N 47°38' W 122°23'  

Dump ship's entire track history